createdAt,value
2023-01-23T00:00:13.690Z,2.85
2023-01-23T00:05:14.907Z,2.71
2023-01-23T00:10:16.124Z,2.54
2023-01-23T00:15:17.374Z,2.53
2023-01-23T00:20:18.934Z,2.27
2023-01-23T00:25:20.324Z,2.43
2023-01-23T00:30:21.680Z,2.50
2023-01-23T00:35:22.983Z,2.64
2023-01-23T00:40:24.211Z,2.31
2023-01-23T00:45:25.439Z,2.86
2023-01-23T00:50:26.641Z,2.87
2023-01-23T00:55:27.923Z,2.43
2023-01-23T01:00:29.172Z,2.52
2023-01-23T01:05:30.456Z,2.28
2023-01-23T01:10:32.880Z,2.52
2023-01-23T01:15:34.175Z,2.27
2023-01-23T01:20:35.391Z,2.29
2023-01-23T01:25:36.597Z,2.55
2023-01-23T01:30:38.093Z,2.41
2023-01-23T01:35:39.418Z,2.18
2023-01-23T01:40:40.910Z,2.46
2023-01-23T01:45:42.173Z,2.51
2023-01-23T01:50:43.484Z,2.49
2023-01-23T01:55:44.701Z,2.66
2023-01-23T02:00:46.044Z,2.60
2023-01-23T02:05:47.365Z,2.53
2023-01-23T02:10:48.623Z,2.13
2023-01-23T02:15:50.002Z,1.97
2023-01-23T02:20:51.269Z,1.83
2023-01-23T02:25:53.459Z,1.79
2023-01-23T02:30:54.816Z,1.90
2023-01-23T02:35:56.187Z,1.92
2023-01-23T02:40:57.483Z,2.25
2023-01-23T02:45:58.746Z,2.40
2023-01-23T02:51:00.060Z,2.22
2023-01-23T02:56:01.342Z,2.08
2023-01-23T03:01:02.630Z,1.93
2023-01-23T03:06:04.160Z,1.96
2023-01-23T03:11:05.358Z,2.07
2023-01-23T03:16:06.917Z,1.70
2023-01-23T03:21:08.383Z,2.10
2023-01-23T03:26:09.636Z,1.92
2023-01-23T03:31:11.269Z,1.91
2023-01-23T03:36:13.128Z,2.15
2023-01-23T03:41:26.695Z,2.18
2023-01-23T03:46:27.968Z,1.74
2023-01-23T03:51:29.228Z,1.78
2023-01-23T03:56:30.516Z,1.81
2023-01-23T04:01:31.805Z,1.23
2023-01-23T04:06:33.074Z,1.54
2023-01-23T04:11:34.295Z,1.64
2023-01-23T04:16:35.610Z,1.96
2023-01-23T04:21:36.946Z,1.99
2023-01-23T04:26:38.249Z,1.71
2023-01-23T04:31:39.555Z,1.18
2023-01-23T04:36:40.831Z,1.13
2023-01-23T04:41:42.030Z,1.27
2023-01-23T04:46:43.234Z,1.40
2023-01-23T04:51:45.695Z,1.57
2023-01-23T04:56:46.909Z,1.43
2023-01-23T05:01:48.133Z,1.52
2023-01-23T05:06:49.367Z,1.65
2023-01-23T05:11:50.591Z,1.54
2023-01-23T05:16:51.823Z,1.63
2023-01-23T05:21:53.106Z,1.59
2023-01-23T05:26:54.355Z,1.40
2023-01-23T05:31:55.672Z,1.38
2023-01-23T05:36:56.889Z,1.44
2023-01-23T05:41:58.099Z,1.25
2023-01-23T05:46:59.340Z,1.30
2023-01-23T05:52:00.557Z,1.46
2023-01-23T05:57:01.805Z,1.40
2023-01-23T06:02:03.148Z,1.39
2023-01-23T06:07:04.420Z,1.28
2023-01-23T06:12:05.673Z,1.38
2023-01-23T06:17:06.979Z,1.31
2023-01-23T06:22:08.240Z,1.11
2023-01-23T06:27:09.451Z,0.93
2023-01-23T06:32:10.714Z,1.14
2023-01-23T06:37:12.078Z,1.02
2023-01-23T06:42:13.368Z,1.06
2023-01-23T06:47:15.689Z,1.12
2023-01-23T06:52:17.057Z,1.15
2023-01-23T06:57:18.400Z,1.24
2023-01-23T07:02:19.674Z,1.25
2023-01-23T07:07:21.002Z,1.38
2023-01-23T07:12:22.451Z,1.45
2023-01-23T07:17:23.793Z,1.27
2023-01-23T07:22:25.124Z,1.43
2023-01-23T07:27:26.406Z,1.43
2023-01-23T07:32:27.629Z,1.48
2023-01-23T07:37:29.059Z,1.49
2023-01-23T07:42:30.433Z,1.59
2023-01-23T07:47:31.802Z,1.62
2023-01-23T07:52:33.299Z,1.73
2023-01-23T07:57:34.557Z,1.74
2023-01-23T08:02:35.883Z,1.64
2023-01-23T08:07:37.137Z,1.73
2023-01-23T08:12:38.395Z,1.81
2023-01-23T08:17:39.646Z,2.04
2023-01-23T08:22:41.211Z,2.09
2023-01-23T08:27:42.767Z,2.10
2023-01-23T08:32:44.113Z,2.23
2023-01-23T08:37:45.562Z,2.28
2023-01-23T08:42:46.854Z,2.27
2023-01-23T08:47:48.520Z,2.21
2023-01-23T08:52:50.117Z,2.30
2023-01-23T08:57:51.490Z,2.48
2023-01-23T09:02:52.909Z,2.49
2023-01-23T09:07:54.261Z,2.55
2023-01-23T09:12:55.696Z,2.45
2023-01-23T09:17:56.972Z,2.62
2023-01-23T09:22:58.341Z,2.60
2023-01-23T09:27:59.608Z,2.71
2023-01-23T09:33:00.871Z,2.71
2023-01-23T09:38:02.774Z,2.65
2023-01-23T09:43:04.525Z,2.81
2023-01-23T09:48:05.976Z,2.71
2023-01-23T09:53:07.300Z,2.79
2023-01-23T09:58:08.733Z,2.57
2023-01-23T10:03:10.032Z,2.72
2023-01-23T10:08:11.528Z,2.86
2023-01-23T10:13:14.921Z,2.89
2023-01-23T10:18:17.710Z,2.84
2023-01-23T10:23:19.039Z,2.93
2023-01-23T10:28:20.526Z,2.94
2023-01-23T10:33:21.842Z,3.18
2023-01-23T10:38:23.100Z,3.29
2023-01-23T10:43:24.497Z,3.56
2023-01-23T10:48:25.804Z,3.55
2023-01-23T10:53:27.212Z,3.96
2023-01-23T10:58:29.013Z,3.86
2023-01-23T11:03:30.510Z,3.76
2023-01-23T11:08:31.824Z,3.83
2023-01-23T11:13:33.101Z,3.67
2023-01-23T11:18:34.573Z,3.69
2023-01-23T11:23:35.949Z,3.71
2023-01-23T11:28:37.456Z,3.56
2023-01-23T11:33:39.092Z,3.53
2023-01-23T11:38:51.420Z,3.65
2023-01-23T11:43:53.698Z,3.88
2023-01-23T11:48:55.017Z,3.91
2023-01-23T11:53:56.316Z,4.34
2023-01-23T11:58:57.598Z,4.14
2023-01-23T12:03:58.949Z,3.85
2023-01-23T12:09:00.382Z,3.77
2023-01-23T12:14:01.664Z,4.07
2023-01-23T12:19:02.940Z,4.10
2023-01-23T12:24:04.209Z,3.72
2023-01-23T12:29:05.571Z,3.83
2023-01-23T12:34:06.866Z,3.99
2023-01-23T12:39:08.204Z,4.04
2023-01-23T12:44:09.465Z,4.00
2023-01-23T12:49:10.823Z,3.95
2023-01-23T12:54:12.121Z,3.99
2023-01-23T12:59:15.243Z,4.30
2023-01-23T13:04:16.604Z,4.47
2023-01-23T13:09:18.954Z,4.51
2023-01-23T13:14:20.639Z,4.27
2023-01-23T13:19:40.474Z,4.11
2023-01-23T13:25:00.515Z,3.97
2023-01-23T13:30:02.527Z,3.86
2023-01-23T13:35:03.797Z,3.96
2023-01-23T13:40:06.771Z,4.07
2023-01-23T13:45:09.322Z,3.87
2023-01-23T14:22:22.071Z,4.16
2023-01-23T14:27:28.895Z,3.81
2023-01-23T14:32:31.550Z,4.12
2023-01-23T14:37:32.759Z,4.21
2023-01-23T14:42:34.809Z,4.09
2023-01-23T14:47:37.795Z,4.26
2023-01-23T14:52:39.170Z,4.06
2023-01-23T14:57:40.514Z,3.92
2023-01-23T15:02:42.667Z,3.76
2023-01-23T15:07:44.661Z,3.65
2023-01-23T15:12:45.918Z,3.44
2023-01-23T15:17:47.158Z,3.28
2023-01-23T15:22:48.399Z,3.51
2023-01-23T15:27:49.606Z,3.42
2023-01-23T15:32:51.087Z,3.22
2023-01-23T15:37:55.985Z,3.21
2023-01-23T15:42:57.296Z,3.29
2023-01-23T15:47:58.613Z,3.00
2023-01-23T15:52:59.896Z,2.84
2023-01-23T15:58:02.920Z,3.27
2023-01-23T16:03:04.319Z,3.21
2023-01-23T16:08:05.730Z,3.29
2023-01-23T16:13:07.821Z,3.32
2023-01-23T16:18:09.142Z,3.01
2023-01-23T16:23:15.160Z,3.08
2023-01-23T16:28:16.754Z,2.90
2023-01-23T16:33:17.979Z,3.00
2023-01-23T16:38:19.697Z,3.02
2023-01-23T16:43:20.966Z,3.22
2023-01-23T16:48:27.247Z,3.10
2023-01-23T16:53:29.408Z,2.91
2023-01-23T16:58:30.939Z,2.96
2023-01-23T17:03:32.288Z,3.17
2023-01-23T17:08:33.523Z,3.01
2023-01-23T17:13:36.150Z,2.85
2023-01-23T17:18:37.670Z,3.10
2023-01-23T17:23:38.907Z,2.80
2023-01-23T17:28:40.303Z,2.99
2023-01-23T17:33:41.610Z,2.76
2023-01-23T17:38:42.893Z,2.85
2023-01-23T17:43:44.789Z,2.80
2023-01-23T17:48:46.060Z,2.82
2023-01-23T17:53:47.425Z,2.98
2023-01-23T17:58:48.761Z,2.51
2023-01-23T18:03:50.409Z,2.72
2023-01-23T18:08:51.630Z,2.79
2023-01-23T18:13:52.869Z,2.80
2023-01-23T18:18:54.163Z,2.90
2023-01-23T18:23:55.789Z,2.76
2023-01-23T18:28:57.104Z,2.86
2023-01-23T18:33:58.363Z,2.80
2023-01-23T18:38:59.595Z,2.83
2023-01-23T18:44:00.845Z,2.77
2023-01-23T18:49:02.107Z,2.84
2023-01-23T18:54:03.374Z,2.74
2023-01-23T18:59:11.596Z,2.78
2023-01-23T19:04:13.793Z,2.72
2023-01-23T19:09:15.094Z,2.75
2023-01-23T19:14:16.358Z,2.75
2023-01-23T19:19:19.085Z,2.81
2023-01-23T19:24:21.340Z,2.84
2023-01-23T19:29:23.347Z,2.84
2023-01-23T19:34:24.688Z,2.64
2023-01-23T19:39:25.933Z,2.49
2023-01-23T19:44:28.923Z,2.59
2023-01-23T19:49:30.290Z,2.64
2023-01-23T19:54:31.556Z,2.64
2023-01-23T19:59:32.788Z,2.59
2023-01-23T20:04:34.266Z,2.60
2023-01-23T20:09:35.509Z,2.88
2023-01-23T20:14:36.734Z,2.78
2023-01-23T20:19:38.376Z,2.88
2023-01-23T20:24:39.574Z,2.78
2023-01-23T20:29:40.783Z,2.67
2023-01-23T20:34:42.051Z,2.77
2023-01-23T20:39:43.297Z,2.76
2023-01-23T20:44:44.572Z,2.66
2023-01-23T20:49:45.911Z,2.82
2023-01-23T20:54:48.236Z,2.84
2023-01-23T20:59:49.673Z,3.01
2023-01-23T21:04:50.938Z,2.98
2023-01-23T21:09:52.210Z,3.14
2023-01-23T21:14:53.451Z,3.08
2023-01-23T21:19:54.717Z,3.11
2023-01-23T21:24:55.959Z,3.05
2023-01-23T21:29:57.271Z,3.21
2023-01-23T21:34:58.701Z,3.33
2023-01-23T21:39:59.937Z,3.27
2023-01-23T21:45:01.199Z,3.20
2023-01-23T21:50:02.412Z,3.10
2023-01-23T21:55:03.700Z,2.94
2023-01-23T22:00:23.775Z,2.72
2023-01-23T22:05:25.030Z,3.07
2023-01-23T22:10:26.321Z,2.74
2023-01-23T22:15:27.625Z,2.51
2023-01-23T22:20:28.999Z,2.77
2023-01-23T22:25:30.275Z,2.95
2023-01-23T22:30:31.570Z,3.13
2023-01-23T22:35:32.772Z,3.35
2023-01-23T22:40:34.139Z,3.38
2023-01-23T22:45:35.429Z,3.19
2023-01-23T22:50:36.639Z,3.38
2023-01-23T22:55:37.845Z,3.38
2023-01-23T23:00:39.046Z,3.29
2023-01-23T23:05:40.312Z,3.05
2023-01-23T23:10:41.545Z,3.07
2023-01-23T23:15:42.754Z,3.17
2023-01-23T23:20:43.996Z,3.21
2023-01-23T23:31:17.880Z,3.04
2023-01-23T23:36:19.236Z,3.11
2023-01-23T23:41:20.591Z,3.23
2023-01-23T23:46:21.796Z,3.20
2023-01-23T23:51:23.128Z,3.30
2023-01-23T23:56:24.434Z,3.44
